Terminal Aerodrome Forecast
Issued by NWS Sioux Falls, SD

Home | Current Version | Previous Version | Text Only | Print | Product List | Glossary On
Versions: 1 2 3 4 5 6 7 8 9 10 11 12 13 14 15 16 17
000
FTUS43 KFSD 232320
TAFHON
TAF
KHON 232320Z 2400/2424 17013KT P6SM SCT070
     FM240300 16010KT P6SM VCTS SCT070CB
     FM240900 16009KT 6SM -TSRA BKN070CB
     FM241100 16011KT P6SM FEW070 SCT140
     FM241300 17012KT P6SM BKN070 BKN130
     FM241700 18013KT P6SM VCTS FEW060CB SCT150=

USA.gov is the U.S. government's official web portal to all federal, state and local government web resources and services.